sensor_id;sensor_type;location;lat;lon;timestamp;P1;durP1;ratioP1;P2;durP2;ratioP2
64619;SDS011;51029;51.058;13.826;2023-05-07T00:00:32;14.90;;;13.13;;
64619;SDS011;51029;51.058;13.826;2023-05-07T00:02:59;15.93;;;13.23;;
64619;SDS011;51029;51.058;13.826;2023-05-07T00:05:24;14.23;;;12.73;;
64619;SDS011;51029;51.058;13.826;2023-05-07T00:07:50;13.67;;;12.00;;
64619;SDS011;51029;51.058;13.826;2023-05-07T00:10:17;14.13;;;12.63;;
64619;SDS011;51029;51.058;13.826;2023-05-07T00:12:44;15.10;;;13.50;;
64619;SDS011;51029;51.058;13.826;2023-05-07T00:15:09;14.93;;;13.37;;
64619;SDS011;51029;51.058;13.826;2023-05-07T00:17:35;16.47;;;14.47;;
64619;SDS011;51029;51.058;13.826;2023-05-07T00:20:01;16.70;;;14.90;;
64619;SDS011;51029;51.058;13.826;2023-05-07T00:22:28;16.57;;;14.87;;
64619;SDS011;51029;51.058;13.826;2023-05-07T00:24:55;17.23;;;15.40;;
64619;SDS011;51029;51.058;13.826;2023-05-07T00:27:20;17.50;;;15.60;;
64619;SDS011;51029;51.058;13.826;2023-05-07T00:29:46;17.33;;;15.50;;
64619;SDS011;51029;51.058;13.826;2023-05-07T00:32:12;19.07;;;15.73;;
64619;SDS011;51029;51.058;13.826;2023-05-07T00:34:37;18.80;;;15.60;;
64619;SDS011;51029;51.058;13.826;2023-05-07T00:37:04;19.00;;;16.13;;
64619;SDS011;51029;51.058;13.826;2023-05-07T00:39:30;18.07;;;16.17;;
64619;SDS011;51029;51.058;13.826;2023-05-07T00:41:55;20.17;;;17.00;;
64619;SDS011;51029;51.058;13.826;2023-05-07T00:44:21;18.20;;;16.30;;
64619;SDS011;51029;51.058;13.826;2023-05-07T00:46:46;17.90;;;16.00;;
64619;SDS011;51029;51.058;13.826;2023-05-07T00:49:14;19.73;;;15.97;;
64619;SDS011;51029;51.058;13.826;2023-05-07T00:51:40;18.07;;;16.07;;
64619;SDS011;51029;51.058;13.826;2023-05-07T00:54:06;19.03;;;16.93;;
64619;SDS011;51029;51.058;13.826;2023-05-07T00:56:34;19.00;;;16.27;;
64619;SDS011;51029;51.058;13.826;2023-05-07T00:59:00;18.40;;;16.50;;
64619;SDS011;51029;51.058;13.826;2023-05-07T01:01:26;20.27;;;16.60;;
64619;SDS011;51029;51.058;13.826;2023-05-07T01:03:52;19.90;;;16.70;;
64619;SDS011;51029;51.058;13.826;2023-05-07T01:06:18;18.97;;;15.77;;
64619;SDS011;51029;51.058;13.826;2023-05-07T01:08:46;16.73;;;14.70;;
64619;SDS011;51029;51.058;13.826;2023-05-07T01:11:12;16.70;;;14.93;;
64619;SDS011;51029;51.058;13.826;2023-05-07T01:13:38;16.63;;;14.70;;
64619;SDS011;51029;51.058;13.826;2023-05-07T01:16:05;17.30;;;15.03;;
64619;SDS011;51029;51.058;13.826;2023-05-07T01:18:31;16.83;;;15.13;;
64619;SDS011;51029;51.058;13.826;2023-05-07T01:20:58;16.27;;;14.60;;
64619;SDS011;51029;51.058;13.826;2023-05-07T01:23:25;17.30;;;15.30;;
64619;SDS011;51029;51.058;13.826;2023-05-07T01:25:52;17.17;;;14.93;;
64619;SDS011;51029;51.058;13.826;2023-05-07T01:28:18;16.03;;;14.37;;
64619;SDS011;51029;51.058;13.826;2023-05-07T01:30:45;16.67;;;14.90;;
64619;SDS011;51029;51.058;13.826;2023-05-07T01:33:14;15.63;;;13.90;;
64619;SDS011;51029;51.058;13.826;2023-05-07T01:35:43;17.00;;;15.20;;
64619;SDS011;51029;51.058;13.826;2023-05-07T01:38:12;16.77;;;14.90;;
64619;SDS011;51029;51.058;13.826;2023-05-07T01:40:38;17.33;;;15.53;;
64619;SDS011;51029;51.058;13.826;2023-05-07T01:43:04;17.17;;;15.43;;
64619;SDS011;51029;51.058;13.826;2023-05-07T01:45:30;17.07;;;15.27;;
64619;SDS011;51029;51.058;13.826;2023-05-07T01:47:57;18.70;;;16.80;;
64619;SDS011;51029;51.058;13.826;2023-05-07T01:50:23;18.80;;;16.27;;
64619;SDS011;51029;51.058;13.826;2023-05-07T01:52:50;18.27;;;16.37;;
64619;SDS011;51029;51.058;13.826;2023-05-07T01:55:17;17.80;;;16.00;;
64619;SDS011;51029;51.058;13.826;2023-05-07T01:57:43;18.00;;;16.10;;
64619;SDS011;51029;51.058;13.826;2023-05-07T02:00:08;18.17;;;16.27;;
64619;SDS011;51029;51.058;13.826;2023-05-07T02:02:34;18.17;;;15.77;;
64619;SDS011;51029;51.058;13.826;2023-05-07T02:05:00;18.20;;;16.30;;
64619;SDS011;51029;51.058;13.826;2023-05-07T02:07:26;17.37;;;15.67;;
64619;SDS011;51029;51.058;13.826;2023-05-07T02:09:52;17.53;;;15.67;;
64619;SDS011;51029;51.058;13.826;2023-05-07T02:12:18;17.47;;;15.67;;
64619;SDS011;51029;51.058;13.826;2023-05-07T02:14:44;16.90;;;15.20;;
64619;SDS011;51029;51.058;13.826;2023-05-07T02:17:09;17.73;;;15.93;;
64619;SDS011;51029;51.058;13.826;2023-05-07T02:19:35;17.67;;;15.87;;
64619;SDS011;51029;51.058;13.826;2023-05-07T02:22:00;18.03;;;16.20;;
64619;SDS011;51029;51.058;13.826;2023-05-07T02:24:26;17.70;;;15.90;;
64619;SDS011;51029;51.058;13.826;2023-05-07T02:26:51;17.23;;;15.43;;
64619;SDS011;51029;51.058;13.826;2023-05-07T02:29:17;18.40;;;16.50;;
64619;SDS011;51029;51.058;13.826;2023-05-07T02:31:42;17.13;;;15.33;;
64619;SDS011;51029;51.058;13.826;2023-05-07T02:34:08;18.77;;;15.70;;
64619;SDS011;51029;51.058;13.826;2023-05-07T02:36:33;16.67;;;14.43;;
64619;SDS011;51029;51.058;13.826;2023-05-07T02:38:59;15.60;;;14.00;;
64619;SDS011;51029;51.058;13.826;2023-05-07T02:41:25;14.97;;;13.00;;
64619;SDS011;51029;51.058;13.826;2023-05-07T02:43:52;13.57;;;12.17;;
64619;SDS011;51029;51.058;13.826;2023-05-07T02:46:18;12.97;;;11.57;;
64619;SDS011;51029;51.058;13.826;2023-05-07T02:48:43;13.93;;;12.43;;
64619;SDS011;51029;51.058;13.826;2023-05-07T02:51:09;13.97;;;11.47;;
64619;SDS011;51029;51.058;13.826;2023-05-07T02:53:35;12.83;;;11.27;;
64619;SDS011;51029;51.058;13.826;2023-05-07T02:56:00;13.70;;;11.63;;
64619;SDS011;51029;51.058;13.826;2023-05-07T02:58:26;13.13;;;11.63;;
64619;SDS011;51029;51.058;13.826;2023-05-07T03:00:52;12.57;;;11.27;;
64619;SDS011;51029;51.058;13.826;2023-05-07T03:03:19;14.27;;;12.07;;
64619;SDS011;51029;51.058;13.826;2023-05-07T03:05:45;14.03;;;11.73;;
64619;SDS011;51029;51.058;13.826;2023-05-07T03:08:11;13.83;;;11.87;;
64619;SDS011;51029;51.058;13.826;2023-05-07T03:10:36;14.43;;;12.03;;
64619;SDS011;51029;51.058;13.826;2023-05-07T03:13:02;16.67;;;13.47;;
64619;SDS011;51029;51.058;13.826;2023-05-07T03:15:28;15.43;;;13.43;;
64619;SDS011;51029;51.058;13.826;2023-05-07T03:17:54;14.87;;;12.50;;
64619;SDS011;51029;51.058;13.826;2023-05-07T03:20:20;15.23;;;13.10;;
64619;SDS011;51029;51.058;13.826;2023-05-07T03:22:45;17.00;;;14.00;;
64619;SDS011;51029;51.058;13.826;2023-05-07T03:25:11;15.63;;;13.17;;
64619;SDS011;51029;51.058;13.826;2023-05-07T03:27:37;18.17;;;14.30;;
64619;SDS011;51029;51.058;13.826;2023-05-07T03:30:03;16.47;;;13.73;;
64619;SDS011;51029;51.058;13.826;2023-05-07T03:32:29;16.47;;;13.97;;
64619;SDS011;51029;51.058;13.826;2023-05-07T03:34:54;17.70;;;14.03;;
64619;SDS011;51029;51.058;13.826;2023-05-07T03:37:20;17.93;;;14.07;;
64619;SDS011;51029;51.058;13.826;2023-05-07T03:39:46;20.57;;;15.23;;
64619;SDS011;51029;51.058;13.826;2023-05-07T03:42:12;18.17;;;15.00;;
64619;SDS011;51029;51.058;13.826;2023-05-07T03:44:38;20.90;;;15.30;;
64619;SDS011;51029;51.058;13.826;2023-05-07T03:47:03;21.80;;;16.00;;
64619;SDS011;51029;51.058;13.826;2023-05-07T03:49:29;19.70;;;16.10;;
64619;SDS011;51029;51.058;13.826;2023-05-07T03:51:55;22.37;;;16.60;;
64619;SDS011;51029;51.058;13.826;2023-05-07T03:54:20;19.90;;;16.47;;
64619;SDS011;51029;51.058;13.826;2023-05-07T03:56:46;20.43;;;15.70;;
64619;SDS011;51029;51.058;13.826;2023-05-07T03:59:12;21.07;;;15.60;;
64619;SDS011;51029;51.058;13.826;2023-05-07T04:01:38;20.83;;;16.67;;
64619;SDS011;51029;51.058;13.826;2023-05-07T04:04:03;21.60;;;17.47;;
64619;SDS011;51029;51.058;13.826;2023-05-07T04:06:30;21.20;;;16.30;;
64619;SDS011;51029;51.058;13.826;2023-05-07T04:08:56;20.43;;;15.90;;
64619;SDS011;51029;51.058;13.826;2023-05-07T04:11:21;22.47;;;17.50;;
64619;SDS011;51029;51.058;13.826;2023-05-07T04:13:47;22.30;;;16.90;;
64619;SDS011;51029;51.058;13.826;2023-05-07T04:16:12;21.43;;;16.67;;
64619;SDS011;51029;51.058;13.826;2023-05-07T04:18:38;22.37;;;17.33;;
64619;SDS011;51029;51.058;13.826;2023-05-07T04:21:04;20.47;;;17.37;;
64619;SDS011;51029;51.058;13.826;2023-05-07T04:23:30;22.17;;;16.50;;
64619;SDS011;51029;51.058;13.826;2023-05-07T04:25:55;20.60;;;17.27;;
64619;SDS011;51029;51.058;13.826;2023-05-07T04:28:22;22.10;;;17.47;;
64619;SDS011;51029;51.058;13.826;2023-05-07T04:30:47;21.60;;;16.57;;
64619;SDS011;51029;51.058;13.826;2023-05-07T04:33:14;18.63;;;15.10;;
64619;SDS011;51029;51.058;13.826;2023-05-07T04:35:42;17.90;;;15.07;;
64619;SDS011;51029;51.058;13.826;2023-05-07T04:38:08;18.10;;;14.87;;
64619;SDS011;51029;51.058;13.826;2023-05-07T04:40:35;18.33;;;14.53;;
64619;SDS011;51029;51.058;13.826;2023-05-07T04:43:01;16.93;;;13.53;;
64619;SDS011;51029;51.058;13.826;2023-05-07T04:45:26;15.97;;;14.27;;
64619;SDS011;51029;51.058;13.826;2023-05-07T04:47:52;16.87;;;14.80;;
64619;SDS011;51029;51.058;13.826;2023-05-07T04:50:17;19.50;;;15.40;;
64619;SDS011;51029;51.058;13.826;2023-05-07T04:52:44;18.07;;;15.27;;
64619;SDS011;51029;51.058;13.826;2023-05-07T04:55:10;18.07;;;15.07;;
64619;SDS011;51029;51.058;13.826;2023-05-07T04:57:35;19.73;;;15.57;;
64619;SDS011;51029;51.058;13.826;2023-05-07T05:00:02;20.13;;;15.47;;
64619;SDS011;51029;51.058;13.826;2023-05-07T05:02:29;16.50;;;14.70;;
64619;SDS011;51029;51.058;13.826;2023-05-07T05:04:54;17.97;;;15.10;;
64619;SDS011;51029;51.058;13.826;2023-05-07T05:07:20;18.97;;;15.30;;
64619;SDS011;51029;51.058;13.826;2023-05-07T05:09:45;19.53;;;15.67;;
64619;SDS011;51029;51.058;13.826;2023-05-07T05:12:11;17.53;;;15.07;;
64619;SDS011;51029;51.058;13.826;2023-05-07T05:14:36;18.67;;;15.30;;
64619;SDS011;51029;51.058;13.826;2023-05-07T05:17:02;19.53;;;15.93;;
64619;SDS011;51029;51.058;13.826;2023-05-07T05:19:27;17.27;;;14.30;;
64619;SDS011;51029;51.058;13.826;2023-05-07T05:21:53;16.30;;;13.73;;
64619;SDS011;51029;51.058;13.826;2023-05-07T05:24:19;16.97;;;13.27;;
64619;SDS011;51029;51.058;13.826;2023-05-07T05:26:45;14.67;;;13.07;;
64619;SDS011;51029;51.058;13.826;2023-05-07T05:29:10;17.47;;;12.97;;
64619;SDS011;51029;51.058;13.826;2023-05-07T05:31:36;14.33;;;12.80;;
64619;SDS011;51029;51.058;13.826;2023-05-07T05:34:02;14.67;;;12.37;;
64619;SDS011;51029;51.058;13.826;2023-05-07T05:36:27;14.90;;;12.17;;
64619;SDS011;51029;51.058;13.826;2023-05-07T05:38:53;13.80;;;12.30;;
64619;SDS011;51029;51.058;13.826;2023-05-07T05:41:18;12.33;;;11.03;;
64619;SDS011;51029;51.058;13.826;2023-05-07T05:43:44;14.17;;;11.77;;
64619;SDS011;51029;51.058;13.826;2023-05-07T05:46:09;14.20;;;11.20;;
64619;SDS011;51029;51.058;13.826;2023-05-07T05:48:36;12.47;;;10.50;;
64619;SDS011;51029;51.058;13.826;2023-05-07T05:51:02;12.33;;;10.37;;
64619;SDS011;51029;51.058;13.826;2023-05-07T05:53:27;10.43;;;9.33;;
64619;SDS011;51029;51.058;13.826;2023-05-07T05:55:53;11.00;;;8.83;;
64619;SDS011;51029;51.058;13.826;2023-05-07T05:58:18;9.47;;;8.33;;
64619;SDS011;51029;51.058;13.826;2023-05-07T06:00:45;10.60;;;8.77;;
64619;SDS011;51029;51.058;13.826;2023-05-07T06:03:11;10.83;;;9.20;;
64619;SDS011;51029;51.058;13.826;2023-05-07T06:05:36;11.57;;;8.90;;
64619;SDS011;51029;51.058;13.826;2023-05-07T06:08:02;12.33;;;9.03;;
64619;SDS011;51029;51.058;13.826;2023-05-07T06:10:28;10.50;;;9.10;;
64619;SDS011;51029;51.058;13.826;2023-05-07T06:12:54;11.07;;;9.23;;
64619;SDS011;51029;51.058;13.826;2023-05-07T06:15:20;10.73;;;8.77;;
64619;SDS011;51029;51.058;13.826;2023-05-07T06:17:45;11.63;;;9.03;;
64619;SDS011;51029;51.058;13.826;2023-05-07T06:20:11;12.90;;;10.40;;
64619;SDS011;51029;51.058;13.826;2023-05-07T06:22:36;10.43;;;9.33;;
64619;SDS011;51029;51.058;13.826;2023-05-07T06:25:02;10.60;;;8.97;;
64619;SDS011;51029;51.058;13.826;2023-05-07T06:27:27;10.33;;;9.23;;
64619;SDS011;51029;51.058;13.826;2023-05-07T06:29:53;15.83;;;14.20;;
64619;SDS011;51029;51.058;13.826;2023-05-07T06:32:18;20.70;;;15.40;;
64619;SDS011;51029;51.058;13.826;2023-05-07T06:34:44;15.10;;;13.43;;
64619;SDS011;51029;51.058;13.826;2023-05-07T06:37:09;10.90;;;9.23;;
64619;SDS011;51029;51.058;13.826;2023-05-07T06:39:35;11.40;;;8.80;;
64619;SDS011;51029;51.058;13.826;2023-05-07T06:42:01;9.93;;;8.97;;
64619;SDS011;51029;51.058;13.826;2023-05-07T06:44:27;9.83;;;8.83;;
64619;SDS011;51029;51.058;13.826;2023-05-07T06:46:53;9.37;;;8.47;;
64619;SDS011;51029;51.058;13.826;2023-05-07T06:49:18;11.30;;;10.10;;
64619;SDS011;51029;51.058;13.826;2023-05-07T06:51:44;12.20;;;10.30;;
64619;SDS011;51029;51.058;13.826;2023-05-07T06:54:09;11.07;;;9.93;;
64619;SDS011;51029;51.058;13.826;2023-05-07T06:56:35;26.07;;;21.30;;
64619;SDS011;51029;51.058;13.826;2023-05-07T06:59:01;24.90;;;20.20;;
64619;SDS011;51029;51.058;13.826;2023-05-07T07:01:27;12.00;;;10.63;;
64619;SDS011;51029;51.058;13.826;2023-05-07T07:03:53;10.20;;;9.03;;
64619;SDS011;51029;51.058;13.826;2023-05-07T07:06:18;10.33;;;9.20;;
64619;SDS011;51029;51.058;13.826;2023-05-07T07:08:44;10.10;;;9.10;;
64619;SDS011;51029;51.058;13.826;2023-05-07T07:11:09;9.07;;;8.07;;
64619;SDS011;51029;51.058;13.826;2023-05-07T07:13:35;9.27;;;7.77;;
64619;SDS011;51029;51.058;13.826;2023-05-07T07:16:01;7.70;;;6.90;;
64619;SDS011;51029;51.058;13.826;2023-05-07T07:18:26;7.43;;;6.73;;
64619;SDS011;51029;51.058;13.826;2023-05-07T07:20:52;6.77;;;6.10;;
64619;SDS011;51029;51.058;13.826;2023-05-07T07:23:18;6.90;;;6.20;;
64619;SDS011;51029;51.058;13.826;2023-05-07T07:25:43;6.83;;;6.13;;
64619;SDS011;51029;51.058;13.826;2023-05-07T07:28:09;16.27;;;14.30;;
64619;SDS011;51029;51.058;13.826;2023-05-07T07:30:35;9.73;;;8.67;;
64619;SDS011;51029;51.058;13.826;2023-05-07T07:33:01;6.70;;;6.00;;
64619;SDS011;51029;51.058;13.826;2023-05-07T07:35:28;6.83;;;6.10;;
64619;SDS011;51029;51.058;13.826;2023-05-07T07:37:54;6.43;;;5.83;;
64619;SDS011;51029;51.058;13.826;2023-05-07T07:40:20;10.57;;;9.57;;
64619;SDS011;51029;51.058;13.826;2023-05-07T07:42:46;6.40;;;5.87;;
64619;SDS011;51029;51.058;13.826;2023-05-07T07:45:11;6.53;;;5.93;;
64619;SDS011;51029;51.058;13.826;2023-05-07T07:47:37;6.73;;;6.13;;
64619;SDS011;51029;51.058;13.826;2023-05-07T07:50:03;7.20;;;6.50;;
64619;SDS011;51029;51.058;13.826;2023-05-07T07:52:29;6.27;;;5.77;;
64619;SDS011;51029;51.058;13.826;2023-05-07T07:54:55;6.10;;;5.53;;
64619;SDS011;51029;51.058;13.826;2023-05-07T07:57:20;6.23;;;5.70;;
64619;SDS011;51029;51.058;13.826;2023-05-07T07:59:46;6.00;;;5.50;;
64619;SDS011;51029;51.058;13.826;2023-05-07T08:02:11;8.07;;;6.20;;
64619;SDS011;51029;51.058;13.826;2023-05-07T08:04:37;6.67;;;6.17;;
64619;SDS011;51029;51.058;13.826;2023-05-07T08:07:02;5.83;;;5.27;;
64619;SDS011;51029;51.058;13.826;2023-05-07T08:09:28;6.17;;;5.43;;
64619;SDS011;51029;51.058;13.826;2023-05-07T08:11:54;5.77;;;5.27;;
64619;SDS011;51029;51.058;13.826;2023-05-07T08:14:19;5.27;;;4.77;;
64619;SDS011;51029;51.058;13.826;2023-05-07T08:16:45;5.60;;;5.10;;
64619;SDS011;51029;51.058;13.826;2023-05-07T08:19:10;6.10;;;5.37;;
64619;SDS011;51029;51.058;13.826;2023-05-07T08:21:38;5.33;;;4.93;;
64619;SDS011;51029;51.058;13.826;2023-05-07T08:24:04;4.93;;;4.43;;
64619;SDS011;51029;51.058;13.826;2023-05-07T08:26:30;5.83;;;5.33;;
64619;SDS011;51029;51.058;13.826;2023-05-07T08:28:56;5.87;;;5.37;;
64619;SDS011;51029;51.058;13.826;2023-05-07T08:31:21;5.83;;;5.33;;
64619;SDS011;51029;51.058;13.826;2023-05-07T08:33:47;5.47;;;4.97;;
64619;SDS011;51029;51.058;13.826;2023-05-07T08:36:12;6.13;;;5.53;;
64619;SDS011;51029;51.058;13.826;2023-05-07T08:38:38;6.20;;;5.70;;
64619;SDS011;51029;51.058;13.826;2023-05-07T08:41:05;7.07;;;6.40;;
64619;SDS011;51029;51.058;13.826;2023-05-07T08:43:32;6.73;;;6.13;;
64619;SDS011;51029;51.058;13.826;2023-05-07T08:46:01;8.27;;;7.47;;
64619;SDS011;51029;51.058;13.826;2023-05-07T08:48:27;8.30;;;7.50;;
64619;SDS011;51029;51.058;13.826;2023-05-07T08:50:56;8.70;;;7.90;;
64619;SDS011;51029;51.058;13.826;2023-05-07T08:53:23;8.50;;;7.67;;
64619;SDS011;51029;51.058;13.826;2023-05-07T08:55:49;9.03;;;8.13;;
64619;SDS011;51029;51.058;13.826;2023-05-07T08:58:15;9.17;;;8.27;;
64619;SDS011;51029;51.058;13.826;2023-05-07T09:00:41;8.97;;;7.87;;
64619;SDS011;51029;51.058;13.826;2023-05-07T09:03:07;10.90;;;9.80;;
64619;SDS011;51029;51.058;13.826;2023-05-07T09:05:32;8.83;;;8.03;;
64619;SDS011;51029;51.058;13.826;2023-05-07T09:08:05;15.23;;;12.93;;
64619;SDS011;51029;51.058;13.826;2023-05-07T09:10:32;38.83;;;31.07;;
64619;SDS011;51029;51.058;13.826;2023-05-07T09:12:58;9.77;;;8.77;;
64619;SDS011;51029;51.058;13.826;2023-05-07T09:15:24;9.67;;;8.67;;
64619;SDS011;51029;51.058;13.826;2023-05-07T09:17:51;9.27;;;8.37;;
64619;SDS011;51029;51.058;13.826;2023-05-07T09:20:16;9.23;;;8.33;;
64619;SDS011;51029;51.058;13.826;2023-05-07T09:22:42;8.87;;;8.03;;
64619;SDS011;51029;51.058;13.826;2023-05-07T09:25:09;8.93;;;8.07;;
64619;SDS011;51029;51.058;13.826;2023-05-07T09:27:35;8.93;;;8.13;;
64619;SDS011;51029;51.058;13.826;2023-05-07T09:30:04;9.80;;;8.63;;
64619;SDS011;51029;51.058;13.826;2023-05-07T09:32:36;9.90;;;7.70;;
64619;SDS011;51029;51.058;13.826;2023-05-07T09:35:05;8.87;;;7.97;;
64619;SDS011;51029;51.058;13.826;2023-05-07T09:37:31;8.57;;;7.73;;
64619;SDS011;51029;51.058;13.826;2023-05-07T09:39:57;8.23;;;7.40;;
64619;SDS011;51029;51.058;13.826;2023-05-07T09:42:24;7.63;;;6.93;;
64619;SDS011;51029;51.058;13.826;2023-05-07T09:44:52;8.13;;;7.33;;
64619;SDS011;51029;51.058;13.826;2023-05-07T09:47:22;9.20;;;8.30;;
64619;SDS011;51029;51.058;13.826;2023-05-07T09:49:49;9.83;;;8.83;;
64619;SDS011;51029;51.058;13.826;2023-05-07T09:52:20;10.23;;;9.17;;
64619;SDS011;51029;51.058;13.826;2023-05-07T09:54:46;10.50;;;9.50;;
64619;SDS011;51029;51.058;13.826;2023-05-07T09:57:13;10.90;;;9.80;;
64619;SDS011;51029;51.058;13.826;2023-05-07T09:59:38;10.60;;;9.43;;
64619;SDS011;51029;51.058;13.826;2023-05-07T10:02:08;11.20;;;9.10;;
64619;SDS011;51029;51.058;13.826;2023-05-07T10:04:35;10.30;;;9.30;;
64619;SDS011;51029;51.058;13.826;2023-05-07T10:07:01;10.57;;;9.47;;
64619;SDS011;51029;51.058;13.826;2023-05-07T10:09:29;9.87;;;8.87;;
64619;SDS011;51029;51.058;13.826;2023-05-07T10:11:55;9.63;;;8.83;;
64619;SDS011;51029;51.058;13.826;2023-05-07T10:14:22;10.10;;;9.10;;
64619;SDS011;51029;51.058;13.826;2023-05-07T10:16:48;8.83;;;8.03;;
64619;SDS011;51029;51.058;13.826;2023-05-07T10:19:14;12.37;;;11.07;;
64619;SDS011;51029;51.058;13.826;2023-05-07T10:21:42;9.20;;;8.40;;
64619;SDS011;51029;51.058;13.826;2023-05-07T10:24:16;9.57;;;8.57;;
64619;SDS011;51029;51.058;13.826;2023-05-07T10:26:47;8.90;;;8.00;;
64619;SDS011;51029;51.058;13.826;2023-05-07T10:29:18;9.00;;;8.20;;
64619;SDS011;51029;51.058;13.826;2023-05-07T10:34:26;10.00;;;9.00;;
64619;SDS011;51029;51.058;13.826;2023-05-07T10:36:57;10.30;;;9.33;;
64619;SDS011;51029;51.058;13.826;2023-05-07T10:39:23;9.37;;;8.57;;
64619;SDS011;51029;51.058;13.826;2023-05-07T10:41:49;9.47;;;8.67;;
64619;SDS011;51029;51.058;13.826;2023-05-07T10:44:24;8.93;;;8.13;;
64619;SDS011;51029;51.058;13.826;2023-05-07T10:47:13;7.53;;;6.83;;
64619;SDS011;51029;51.058;13.826;2023-05-07T10:52:16;8.30;;;7.50;;
64619;SDS011;51029;51.058;13.826;2023-05-07T10:54:43;7.70;;;7.07;;
64619;SDS011;51029;51.058;13.826;2023-05-07T11:00:01;8.13;;;6.87;;
64619;SDS011;51029;51.058;13.826;2023-05-07T11:05:31;7.37;;;6.67;;
64619;SDS011;51029;51.058;13.826;2023-05-07T11:07:57;7.30;;;6.70;;
64619;SDS011;51029;51.058;13.826;2023-05-07T11:13:12;7.10;;;6.47;;
64619;SDS011;51029;51.058;13.826;2023-05-07T11:15:38;7.07;;;6.37;;
64619;SDS011;51029;51.058;13.826;2023-05-07T11:18:06;7.03;;;6.33;;
64619;SDS011;51029;51.058;13.826;2023-05-07T11:25:59;7.30;;;6.60;;
64619;SDS011;51029;51.058;13.826;2023-05-07T11:28:25;7.80;;;7.10;;
64619;SDS011;51029;51.058;13.826;2023-05-07T11:30:55;6.90;;;6.17;;
64619;SDS011;51029;51.058;13.826;2023-05-07T11:33:22;7.30;;;6.60;;
64619;SDS011;51029;51.058;13.826;2023-05-07T11:35:50;7.93;;;6.90;;
64619;SDS011;51029;51.058;13.826;2023-05-07T11:38:17;7.40;;;6.70;;
64619;SDS011;51029;51.058;13.826;2023-05-07T11:40:50;7.10;;;6.50;;
64619;SDS011;51029;51.058;13.826;2023-05-07T11:43:23;7.70;;;7.00;;
64619;SDS011;51029;51.058;13.826;2023-05-07T11:45:49;8.30;;;7.47;;
64619;SDS011;51029;51.058;13.826;2023-05-07T11:48:16;7.90;;;7.10;;
64619;SDS011;51029;51.058;13.826;2023-05-07T11:53:17;7.13;;;6.43;;
64619;SDS011;51029;51.058;13.826;2023-05-07T11:55:43;7.87;;;7.07;;
64619;SDS011;51029;51.058;13.826;2023-05-07T11:58:10;19.93;;;15.70;;
64619;SDS011;51029;51.058;13.826;2023-05-07T12:00:37;10.53;;;9.47;;
64619;SDS011;51029;51.058;13.826;2023-05-07T12:03:03;7.10;;;6.40;;
64619;SDS011;51029;51.058;13.826;2023-05-07T12:05:30;6.97;;;6.27;;
64619;SDS011;51029;51.058;13.826;2023-05-07T12:07:58;6.70;;;6.13;;
64619;SDS011;51029;51.058;13.826;2023-05-07T12:10:24;7.00;;;6.40;;
64619;SDS011;51029;51.058;13.826;2023-05-07T12:12:50;6.73;;;6.13;;
64619;SDS011;51029;51.058;13.826;2023-05-07T12:15:16;7.00;;;6.30;;
64619;SDS011;51029;51.058;13.826;2023-05-07T12:17:42;6.40;;;5.90;;
64619;SDS011;51029;51.058;13.826;2023-05-07T12:20:08;6.60;;;6.00;;
64619;SDS011;51029;51.058;13.826;2023-05-07T12:22:35;7.50;;;6.80;;
64619;SDS011;51029;51.058;13.826;2023-05-07T12:25:01;7.47;;;6.67;;
64619;SDS011;51029;51.058;13.826;2023-05-07T12:27:27;7.70;;;6.33;;
64619;SDS011;51029;51.058;13.826;2023-05-07T12:29:53;6.80;;;6.20;;
64619;SDS011;51029;51.058;13.826;2023-05-07T12:32:20;6.50;;;6.00;;
64619;SDS011;51029;51.058;13.826;2023-05-07T12:34:46;6.23;;;5.73;;
64619;SDS011;51029;51.058;13.826;2023-05-07T12:37:15;6.50;;;5.80;;
64619;SDS011;51029;51.058;13.826;2023-05-07T12:39:44;6.47;;;5.83;;
64619;SDS011;51029;51.058;13.826;2023-05-07T12:42:16;6.67;;;6.03;;
64619;SDS011;51029;51.058;13.826;2023-05-07T12:44:45;6.33;;;5.73;;
64619;SDS011;51029;51.058;13.826;2023-05-07T12:47:11;6.67;;;6.07;;
64619;SDS011;51029;51.058;13.826;2023-05-07T12:49:37;6.03;;;5.53;;
64619;SDS011;51029;51.058;13.826;2023-05-07T12:52:03;8.13;;;7.33;;
64619;SDS011;51029;51.058;13.826;2023-05-07T12:54:30;6.20;;;5.70;;
64619;SDS011;51029;51.058;13.826;2023-05-07T12:57:00;6.87;;;5.40;;
64619;SDS011;51029;51.058;13.826;2023-05-07T12:59:30;5.97;;;5.40;;
64619;SDS011;51029;51.058;13.826;2023-05-07T13:02:01;5.57;;;5.07;;
64619;SDS011;51029;51.058;13.826;2023-05-07T13:04:26;4.23;;;3.93;;
64619;SDS011;51029;51.058;13.826;2023-05-07T13:06:52;3.93;;;3.53;;
64619;SDS011;51029;51.058;13.826;2023-05-07T13:09:17;5.90;;;3.80;;
64619;SDS011;51029;51.058;13.826;2023-05-07T13:11:43;3.90;;;3.60;;
64619;SDS011;51029;51.058;13.826;2023-05-07T13:14:08;4.10;;;3.70;;
64619;SDS011;51029;51.058;13.826;2023-05-07T13:16:34;6.40;;;5.80;;
64619;SDS011;51029;51.058;13.826;2023-05-07T13:18:59;10.87;;;9.77;;
64619;SDS011;51029;51.058;13.826;2023-05-07T13:21:25;4.17;;;3.77;;
64619;SDS011;51029;51.058;13.826;2023-05-07T13:23:51;4.80;;;3.80;;
64619;SDS011;51029;51.058;13.826;2023-05-07T13:26:17;4.67;;;4.13;;
64619;SDS011;51029;51.058;13.826;2023-05-07T13:28:43;4.33;;;3.93;;
64619;SDS011;51029;51.058;13.826;2023-05-07T13:31:08;4.60;;;4.20;;
64619;SDS011;51029;51.058;13.826;2023-05-07T13:33:34;4.93;;;4.53;;
64619;SDS011;51029;51.058;13.826;2023-05-07T13:36:00;4.40;;;4.10;;
64619;SDS011;51029;51.058;13.826;2023-05-07T13:38:26;4.50;;;4.10;;
64619;SDS011;51029;51.058;13.826;2023-05-07T13:40:51;4.33;;;3.93;;
64619;SDS011;51029;51.058;13.826;2023-05-07T13:43:17;4.43;;;4.13;;
64619;SDS011;51029;51.058;13.826;2023-05-07T13:45:43;4.53;;;4.13;;
64619;SDS011;51029;51.058;13.826;2023-05-07T13:48:09;5.17;;;4.30;;
64619;SDS011;51029;51.058;13.826;2023-05-07T13:50:34;5.30;;;4.90;;
64619;SDS011;51029;51.058;13.826;2023-05-07T13:53:00;4.03;;;3.73;;
64619;SDS011;51029;51.058;13.826;2023-05-07T13:55:28;4.17;;;3.77;;
64619;SDS011;51029;51.058;13.826;2023-05-07T13:57:55;3.97;;;3.67;;
64619;SDS011;51029;51.058;13.826;2023-05-07T14:00:25;3.67;;;3.37;;
64619;SDS011;51029;51.058;13.826;2023-05-07T14:02:52;4.23;;;3.83;;
64619;SDS011;51029;51.058;13.826;2023-05-07T14:05:17;3.83;;;3.50;;
64619;SDS011;51029;51.058;13.826;2023-05-07T14:07:43;3.97;;;3.57;;
64619;SDS011;51029;51.058;13.826;2023-05-07T14:10:09;3.50;;;3.20;;
64619;SDS011;51029;51.058;13.826;2023-05-07T14:12:36;4.00;;;3.20;;
64619;SDS011;51029;51.058;13.826;2023-05-07T14:15:02;3.90;;;3.60;;
64619;SDS011;51029;51.058;13.826;2023-05-07T14:17:28;3.47;;;3.17;;
64619;SDS011;51029;51.058;13.826;2023-05-07T14:19:54;5.30;;;3.73;;
64619;SDS011;51029;51.058;13.826;2023-05-07T14:22:20;4.37;;;3.10;;
64619;SDS011;51029;51.058;13.826;2023-05-07T14:24:47;5.40;;;3.13;;
64619;SDS011;51029;51.058;13.826;2023-05-07T14:27:13;3.43;;;2.87;;
64619;SDS011;51029;51.058;13.826;2023-05-07T14:29:38;3.40;;;2.40;;
64619;SDS011;51029;51.058;13.826;2023-05-07T14:32:04;3.20;;;2.90;;
64619;SDS011;51029;51.058;13.826;2023-05-07T14:34:30;2.97;;;2.77;;
64619;SDS011;51029;51.058;13.826;2023-05-07T14:36:56;2.90;;;2.70;;